Justine — WDF6361 — position and weather

sailwx.info

Track history (hours):
 
Tides and Currents Weather Stations Pressure Air Temp Water Temp Dewpoint Dewpoint Depression Visibility Wind Speed Wind Dir Waves Ship Positions

Justine

Owner: Dagon Marine, LLC, Secaucus, NJ. More information available from US FCC via Universal Licensing System and Coast Guard Vessel Documentation Center.

Last reported at 2018-Jul-22 16:30 UTC. Time now 2018-Jul-22 22:08 UTC.
Position N 40°45' W 074°01'.

Length 30 m; draft 3 m.

Type: Pleasure craft. MMSI: 368564000.

Date/timePositionNaut miles runAvg speedWind from/ knotsBaromVisibWave heightAir tempDewpointWater temp
2018-Jul-22 16:30N 40°45' W 074°01'3 1.7
2018-Jul-22 14:52N 40°42' W 074°01'1 3.0
2018-Jul-22 14:30N 40°42' W 074°02'3 0.1
2018-Jul-20 22:58N 40°45' W 074°01'4 8.4
2018-Jul-20 22:30N 40°41' W 074°02'3 5.5
2018-Jul-20 22:00N 40°43' W 073°59'2 3.5
2018-Jul-20 21:29N 40°44' W 073°58'3 6.7
2018-Jul-20 21:00N 40°42' W 074°01'  
2018-Jul-15 03:38N 40°45' W 074°01'213.8
2018-Jul-15 03:30N 40°43' W 074°01'2 3.2
2018-Jul-15 02:59N 40°42' W 073°60'3 0.3
2018-Jul-14 19:13N 40°45' W 073°58'2 8.3
2018-Jul-14 19:00N 40°43' W 073°58'4 7.2
2018-Jul-14 18:30N 40°41' W 074°03'4 0.2
2018-Jul-14 02:49N 40°45' W 074°01'3 8.8
2018-Jul-14 02:30N 40°42' W 074°01'3 3.8
2018-Jul-14 01:46N 40°44' W 073°58'2 8.2
2018-Jul-14 01:29N 40°42' W 074°00'2 3.6
2018-Jul-14 01:00N 40°42' W 074°02'2 3.3
2018-Jul-14 00:30N 40°43' W 074°02'  
Track history (hours):
 
Tides and Currents Weather Stations Pressure Air Temp Water Temp Dewpoint Dewpoint Depression Visibility Wind Speed Wind Dir Waves Ship Positions

Justine

Owner: Dagon Marine, LLC, Secaucus, NJ. More information available from US FCC via Universal Licensing System and Coast Guard Vessel Documentation Center.

Last reported at 2018-Jul-22 16:30 UTC. Time now 2018-Jul-22 22:08 UTC.
Position N 40°45' W 074°01'.

Length 30 m; draft 3 m.

Type: Pleasure craft. MMSI: 368564000.

Date/timePositionNaut miles runAvg speedWind from/ knotsBaromVisibWave heightAir tempDewpointWater temp
2018-Jul-22 16:30N 40°45' W 074°01'3 1.7
2018-Jul-22 14:52N 40°42' W 074°01'1 3.0
2018-Jul-22 14:30N 40°42' W 074°02'3 0.1
2018-Jul-20 22:58N 40°45' W 074°01'4 8.4
2018-Jul-20 22:30N 40°41' W 074°02'3 5.5
2018-Jul-20 22:00N 40°43' W 073°59'2 3.5
2018-Jul-20 21:29N 40°44' W 073°58'3 6.7
2018-Jul-20 21:00N 40°42' W 074°01'  
2018-Jul-15 03:38N 40°45' W 074°01'213.8
2018-Jul-15 03:30N 40°43' W 074°01'2 3.2
2018-Jul-15 02:59N 40°42' W 073°60'3 0.3
2018-Jul-14 19:13N 40°45' W 073°58'2 8.3
2018-Jul-14 19:00N 40°43' W 073°58'4 7.2
2018-Jul-14 18:30N 40°41' W 074°03'4 0.2
2018-Jul-14 02:49N 40°45' W 074°01'3 8.8
2018-Jul-14 02:30N 40°42' W 074°01'3 3.8
2018-Jul-14 01:46N 40°44' W 073°58'2 8.2
2018-Jul-14 01:29N 40°42' W 074°00'2 3.6
2018-Jul-14 01:00N 40°42' W 074°02'2 3.3
2018-Jul-14 00:30N 40°43' W 074°02'  

Dump ship's entire track history